createdAt,value
2022-08-05T00:01:35.562Z,21.15
2022-08-05T00:04:05.179Z,21.13
2022-08-05T00:06:36.376Z,21.11
2022-08-05T00:09:12.802Z,21.10
2022-08-05T00:11:49.622Z,21.09
2022-08-05T00:14:27.594Z,21.07
2022-08-05T00:17:01.913Z,21.06
2022-08-05T00:19:33.698Z,21.05
2022-08-05T00:22:11.339Z,21.03
2022-08-05T00:24:42.356Z,21.02
2022-08-05T00:27:28.542Z,21.00
2022-08-05T00:29:58.805Z,20.98
2022-08-05T00:32:28.557Z,20.97
2022-08-05T00:35:06.399Z,20.96
2022-08-05T00:37:52.580Z,20.96
2022-08-05T00:40:27.149Z,20.94
2022-08-05T00:42:59.709Z,20.95
2022-08-05T00:45:42.848Z,20.95
2022-08-05T00:48:13.272Z,20.94
2022-08-05T00:50:45.817Z,20.93
2022-08-05T00:54:00.867Z,20.92
2022-08-05T00:56:07.916Z,20.91
2022-08-05T00:58:38.018Z,20.88
2022-08-05T01:01:09.061Z,20.85
2022-08-05T01:03:39.352Z,20.82
2022-08-05T01:06:14.038Z,20.78
2022-08-05T01:08:46.374Z,20.74
2022-08-05T01:11:24.131Z,20.72
2022-08-05T01:14:15.366Z,20.67
2022-08-05T01:16:54.279Z,20.62
2022-08-05T01:19:30.211Z,20.59
2022-08-05T01:22:34.152Z,20.56
2022-08-05T01:25:08.232Z,20.55
2022-08-05T01:27:50.608Z,20.55
2022-08-05T01:30:34.247Z,20.56
2022-08-05T01:33:09.589Z,20.57
2022-08-05T01:35:50.988Z,20.57
2022-08-05T01:38:26.811Z,20.56
2022-08-05T01:41:01.790Z,20.53
2022-08-05T01:43:32.674Z,20.48
2022-08-05T01:46:06.910Z,20.41
2022-08-05T01:48:49.388Z,20.33
2022-08-05T01:51:19.182Z,20.26
2022-08-05T01:53:58.126Z,20.19
2022-08-05T01:58:09.947Z,20.13
2022-08-05T01:59:22.198Z,20.08
2022-08-05T02:01:54.762Z,20.04
2022-08-05T02:04:25.950Z,19.96
2022-08-05T02:06:54.025Z,19.88
2022-08-05T02:09:22.142Z,19.82
2022-08-05T02:12:11.028Z,19.76
2022-08-05T02:14:47.993Z,19.70
2022-08-05T02:18:27.624Z,19.65
2022-08-05T02:20:22.197Z,19.60
2022-08-05T02:23:00.047Z,19.54
2022-08-05T02:25:49.355Z,19.47
2022-08-05T02:28:29.258Z,19.41
2022-08-05T02:31:26.519Z,19.37
2022-08-05T02:34:02.779Z,19.32
2022-08-05T02:36:32.714Z,19.29
2022-08-05T02:39:03.296Z,19.26
2022-08-05T02:41:43.221Z,19.23
2022-08-05T02:44:24.464Z,19.18
2022-08-05T02:47:00.269Z,19.90
2022-08-05T02:49:36.699Z,21.57
2022-08-05T02:52:09.377Z,22.35
2022-08-05T02:54:41.179Z,21.72
2022-08-05T02:58:10.337Z,21.01
2022-08-05T03:00:04.900Z,20.48
2022-08-05T03:02:40.594Z,20.17
2022-08-05T03:05:12.510Z,19.94
2022-08-05T03:08:06.705Z,19.76
2022-08-05T03:10:30.960Z,19.55
2022-08-05T03:15:28.485Z,19.27
2022-08-05T03:17:57.798Z,19.16
2022-08-05T03:20:28.447Z,19.07
2022-08-05T03:22:57.622Z,19.30
2022-08-05T03:25:32.989Z,20.85
2022-08-05T03:29:03.014Z,22.01
2022-08-05T03:31:56.520Z,22.17
2022-08-05T03:34:27.340Z,21.35
2022-08-05T03:36:57.250Z,20.75
2022-08-05T03:39:27.219Z,20.31
2022-08-05T03:41:56.972Z,20.00
2022-08-05T03:44:26.090Z,19.75
2022-08-05T03:46:57.217Z,19.56
2022-08-05T03:49:30.977Z,19.41
2022-08-05T03:52:48.515Z,19.24
2022-08-05T03:55:52.916Z,19.09
2022-08-05T03:58:03.770Z,18.97
2022-08-05T04:00:33.333Z,19.19
2022-08-05T04:03:03.558Z,20.67
2022-08-05T04:05:36.360Z,21.92
2022-08-05T04:08:14.504Z,22.40
2022-08-05T04:10:59.003Z,21.55
2022-08-05T04:13:51.142Z,20.83
2022-08-05T04:16:24.959Z,20.32
2022-08-05T04:18:54.898Z,20.00
2022-08-05T04:22:08.235Z,19.78
2022-08-05T04:24:18.839Z,19.61
2022-08-05T04:26:47.705Z,19.51
2022-08-05T04:29:15.602Z,19.42
2022-08-05T04:31:43.569Z,19.37
2022-08-05T04:34:31.247Z,19.62
2022-08-05T04:36:59.628Z,21.46
2022-08-05T04:39:28.831Z,22.57
2022-08-05T04:41:56.724Z,22.09
2022-08-05T04:44:29.904Z,21.43
2022-08-05T04:46:59.578Z,21.00
2022-08-05T04:49:38.767Z,20.75
2022-08-05T04:52:16.212Z,20.56
2022-08-05T04:54:44.274Z,20.45
2022-08-05T04:57:12.188Z,20.40
2022-08-05T04:59:40.734Z,20.36
2022-08-05T05:02:41.518Z,20.35
2022-08-05T05:05:03.105Z,20.35
2022-08-05T05:07:35.347Z,20.37
2022-08-05T05:10:06.661Z,20.42
2022-08-05T05:12:36.646Z,20.47
2022-08-05T05:15:06.024Z,20.52
2022-08-05T05:17:55.597Z,20.60
2022-08-05T05:20:28.374Z,20.67
2022-08-05T05:23:24.478Z,20.74
2022-08-05T05:25:52.609Z,20.84
2022-08-05T05:28:20.651Z,20.93
2022-08-05T05:30:49.581Z,21.03
2022-08-05T05:33:18.035Z,21.12
2022-08-05T05:35:51.843Z,21.20
2022-08-05T05:38:22.641Z,21.28
2022-08-05T05:40:58.006Z,21.37
2022-08-05T05:43:54.181Z,21.46
2022-08-05T05:46:15.915Z,21.58
2022-08-05T05:48:48.865Z,21.67
2022-08-05T05:51:22.343Z,21.74
2022-08-05T05:53:57.482Z,21.80
2022-08-05T05:56:32.487Z,21.89
2022-08-05T05:59:07.426Z,21.98
2022-08-05T06:01:39.401Z,22.09
2022-08-05T06:04:11.821Z,22.21
2022-08-05T06:06:47.290Z,22.32
2022-08-05T06:09:25.646Z,22.42
2022-08-05T06:12:01.160Z,22.52
2022-08-05T06:14:31.673Z,22.62
2022-08-05T06:17:02.091Z,22.73
2022-08-05T06:19:56.577Z,22.85
2022-08-05T06:22:30.557Z,22.95
2022-08-05T06:25:25.165Z,23.06
2022-08-05T06:28:10.999Z,23.19
2022-08-05T06:30:41.410Z,23.34
2022-08-05T06:33:10.652Z,23.46
2022-08-05T06:36:07.767Z,23.54
2022-08-05T06:38:36.745Z,23.65
2022-08-05T06:41:08.247Z,23.74
2022-08-05T06:43:58.727Z,23.82
2022-08-05T06:46:30.355Z,23.89
2022-08-05T06:49:01.217Z,23.95
2022-08-05T06:51:31.037Z,24.02
2022-08-05T06:54:01.968Z,24.12
2022-08-05T06:56:34.680Z,24.23
2022-08-05T06:59:09.490Z,24.36
2022-08-05T07:01:40.748Z,24.48
2022-08-05T07:04:10.927Z,24.57
2022-08-05T07:06:42.239Z,24.66
2022-08-05T07:09:10.304Z,24.72
2022-08-05T07:11:39.991Z,24.80
2022-08-05T07:14:29.513Z,24.88
2022-08-05T07:17:58.405Z,24.99
2022-08-05T07:20:31.226Z,25.11
2022-08-05T07:22:39.509Z,25.22
2022-08-05T07:25:54.728Z,25.32
2022-08-05T07:28:04.187Z,25.43
2022-08-05T07:30:38.693Z,25.54
2022-08-05T07:33:15.571Z,25.65
2022-08-05T07:36:02.310Z,25.78
2022-08-05T07:38:43.645Z,25.93
2022-08-05T07:42:08.573Z,26.12
2022-08-05T07:44:18.594Z,26.31
2022-08-05T07:46:49.501Z,26.45
2022-08-05T07:49:19.975Z,26.55
2022-08-05T07:51:53.423Z,26.68
2022-08-05T07:54:31.485Z,26.80
2022-08-05T07:57:16.709Z,26.91
2022-08-05T07:59:51.656Z,27.02
2022-08-05T08:02:26.757Z,27.09
2022-08-05T08:05:02.032Z,27.18
2022-08-05T08:07:39.677Z,27.24
2022-08-05T08:10:20.434Z,27.31
2022-08-05T08:12:50.013Z,27.45
2022-08-05T08:15:18.236Z,27.55
2022-08-05T08:18:09.911Z,27.62
2022-08-05T08:21:02.288Z,27.72
2022-08-05T08:24:02.126Z,27.86
2022-08-05T08:26:27.024Z,28.00
2022-08-05T08:29:21.616Z,28.15
2022-08-05T08:31:49.260Z,28.28
2022-08-05T08:34:30.148Z,28.38
2022-08-05T08:37:04.914Z,28.50
2022-08-05T08:39:37.110Z,28.64
2022-08-05T08:42:33.815Z,28.78
2022-08-05T08:45:18.096Z,28.95
2022-08-05T08:48:11.789Z,29.08
2022-08-05T08:51:22.806Z,29.22
2022-08-05T08:53:37.195Z,29.38
2022-08-05T08:57:06.025Z,29.53
2022-08-05T09:01:00.751Z,29.71
2022-08-05T09:05:16.714Z,29.76
2022-08-05T09:08:58.692Z,29.81
2022-08-05T09:12:51.122Z,29.81
2022-08-05T09:16:42.194Z,30.07
2022-08-05T09:20:38.382Z,30.31
2022-08-05T09:24:27.408Z,30.43
2022-08-05T09:28:21.027Z,30.55
2022-08-05T09:32:42.252Z,30.73
2022-08-05T09:36:19.922Z,30.98
2022-08-05T09:39:16.788Z,31.02
2022-08-05T09:41:58.691Z,31.12
2022-08-05T09:44:35.818Z,31.23
2022-08-05T09:47:15.435Z,31.35
2022-08-05T09:50:00.695Z,31.54
2022-08-05T09:52:35.847Z,31.76
2022-08-05T09:55:57.988Z,31.93
2022-08-05T09:57:59.844Z,32.07
2022-08-05T10:00:30.470Z,32.12
2022-08-05T10:02:59.160Z,32.12
2022-08-05T10:05:32.746Z,32.12
2022-08-05T10:08:35.823Z,32.21
2022-08-05T10:10:54.443Z,32.24
2022-08-05T10:13:31.615Z,32.28
2022-08-05T10:16:29.171Z,32.35
2022-08-05T10:18:58.383Z,32.46
2022-08-05T10:21:27.647Z,32.59
2022-08-05T10:24:07.551Z,32.72
2022-08-05T10:26:49.160Z,32.79
2022-08-05T10:29:24.058Z,32.83
2022-08-05T10:32:53.604Z,32.94
2022-08-05T10:35:00.881Z,33.03
2022-08-05T10:37:40.394Z,33.14
2022-08-05T10:40:28.546Z,33.38
2022-08-05T10:43:04.943Z,33.62
2022-08-05T10:45:40.291Z,33.86
2022-08-05T10:48:35.279Z,34.02
2022-08-05T10:51:21.975Z,34.21
2022-08-05T10:54:22.992Z,34.31
2022-08-05T10:56:58.544Z,34.32
2022-08-05T11:00:04.283Z,34.17
2022-08-05T11:02:37.490Z,34.19
2022-08-05T11:05:10.607Z,34.32
2022-08-05T11:08:03.201Z,34.35
2022-08-05T11:10:50.066Z,34.48
2022-08-05T11:13:54.923Z,34.64
2022-08-05T11:16:33.683Z,34.73
2022-08-05T11:20:10.047Z,34.73
2022-08-05T11:22:49.769Z,34.61
2022-08-05T11:26:06.105Z,34.73
2022-08-05T11:28:33.452Z,34.64
2022-08-05T11:31:06.577Z,34.64
2022-08-05T11:33:53.212Z,34.78
2022-08-05T11:36:44.597Z,34.93
2022-08-05T11:39:18.850Z,34.95
2022-08-05T11:42:01.462Z,34.95
2022-08-05T11:44:52.720Z,35.07
2022-08-05T11:47:48.517Z,35.12
2022-08-05T11:50:14.439Z,35.31
2022-08-05T11:52:44.113Z,35.51
2022-08-05T11:55:15.020Z,35.67
2022-08-05T11:58:10.319Z,35.81
2022-08-05T12:00:38.593Z,35.83
2022-08-05T12:03:31.632Z,35.75
2022-08-05T12:06:06.193Z,35.72
2022-08-05T12:08:51.006Z,35.77
2022-08-05T12:11:21.743Z,35.90
2022-08-05T12:14:10.212Z,36.08
2022-08-05T12:16:41.402Z,36.19
2022-08-05T12:20:25.839Z,36.23
2022-08-05T12:22:09.416Z,36.29
2022-08-05T12:24:43.734Z,36.36
2022-08-05T12:27:33.022Z,36.15
2022-08-05T12:30:07.573Z,35.98
2022-08-05T12:32:50.355Z,35.93
2022-08-05T12:35:21.714Z,36.03
2022-08-05T12:37:50.315Z,36.29
2022-08-05T12:40:26.723Z,36.50
2022-08-05T12:42:58.973Z,36.62
2022-08-05T12:45:36.862Z,36.78
2022-08-05T12:48:27.055Z,36.92
2022-08-05T12:52:10.671Z,37.14
2022-08-05T12:54:02.840Z,37.35
2022-08-05T12:56:35.079Z,37.61
2022-08-05T12:59:23.824Z,37.85
2022-08-05T13:02:08.247Z,37.95
2022-08-05T13:04:52.276Z,37.67
2022-08-05T13:07:55.738Z,37.52
2022-08-05T13:10:19.631Z,37.65
2022-08-05T13:12:57.919Z,37.73
2022-08-05T13:15:42.236Z,37.89
2022-08-05T13:18:20.066Z,38.02
2022-08-05T13:20:49.916Z,38.14
2022-08-05T13:23:22.616Z,38.24
2022-08-05T13:25:59.696Z,38.06
2022-08-05T13:28:29.490Z,37.85
2022-08-05T13:31:11.208Z,37.84
2022-08-05T13:34:23.605Z,37.79
2022-08-05T13:36:31.785Z,37.80
2022-08-05T13:40:15.094Z,37.90
2022-08-05T13:44:05.918Z,37.93
2022-08-05T13:47:04.971Z,37.76
2022-08-05T13:49:36.948Z,37.77
2022-08-05T13:52:18.314Z,37.99
2022-08-05T13:54:53.463Z,38.30
2022-08-05T13:57:22.476Z,38.45
2022-08-05T13:59:57.419Z,38.64
2022-08-05T14:02:37.323Z,38.91
2022-08-05T14:05:15.275Z,39.11
2022-08-05T14:08:02.705Z,39.28
2022-08-05T14:10:34.988Z,39.40
2022-08-05T14:13:03.045Z,39.57
2022-08-05T14:16:08.476Z,39.71
2022-08-05T14:18:23.413Z,40.00
2022-08-05T14:20:54.352Z,40.18
2022-08-05T14:23:26.062Z,40.25
2022-08-05T14:25:58.751Z,40.14
2022-08-05T14:28:29.792Z,39.95
2022-08-05T14:31:00.575Z,39.57
2022-08-05T14:33:57.003Z,39.36
2022-08-05T14:36:21.470Z,39.15
2022-08-05T14:38:50.966Z,38.95
2022-08-05T14:41:20.024Z,38.94
2022-08-05T14:43:59.106Z,38.88
2022-08-05T14:46:31.043Z,38.68
2022-08-05T14:49:07.000Z,38.54
2022-08-05T14:51:38.172Z,38.59
2022-08-05T14:54:30.049Z,38.70
2022-08-05T14:56:56.011Z,38.70
2022-08-05T14:59:24.248Z,38.83
2022-08-05T15:01:53.838Z,39.00
2022-08-05T15:04:22.690Z,38.95
2022-08-05T15:06:51.765Z,38.72
2022-08-05T15:09:50.542Z,38.68
2022-08-05T15:12:11.691Z,38.81
2022-08-05T15:14:49.593Z,38.60
2022-08-05T15:17:45.680Z,38.26
2022-08-05T15:20:16.999Z,38.13
2022-08-05T15:22:52.404Z,38.18
2022-08-05T15:25:41.235Z,38.49
2022-08-05T15:28:15.469Z,38.80
2022-08-05T15:30:45.734Z,38.99
2022-08-05T15:34:04.111Z,39.19
2022-08-05T15:36:04.954Z,39.37
2022-08-05T15:38:42.100Z,39.49
2022-08-05T15:41:22.782Z,39.60
2022-08-05T15:43:54.671Z,39.75
2022-08-05T15:46:24.932Z,39.90
2022-08-05T15:49:00.763Z,40.02
2022-08-05T15:52:13.655Z,40.16
2022-08-05T15:54:34.952Z,40.23
2022-08-05T15:57:07.773Z,39.86
2022-08-05T15:59:38.102Z,39.57
2022-08-05T16:02:14.331Z,39.64
2022-08-05T16:04:44.021Z,39.79
2022-08-05T16:07:12.314Z,39.95
2022-08-05T16:09:42.136Z,40.05
2022-08-05T16:12:11.892Z,40.01
2022-08-05T16:14:40.180Z,39.94
2022-08-05T16:17:09.503Z,39.98
2022-08-05T16:20:03.671Z,40.09
2022-08-05T16:22:34.095Z,40.22
2022-08-05T16:25:08.201Z,40.25
2022-08-05T16:27:47.173Z,40.15
2022-08-05T16:30:28.711Z,40.03
2022-08-05T16:32:58.272Z,39.84
2022-08-05T16:35:28.625Z,39.71
2022-08-05T16:38:15.095Z,39.69
2022-08-05T16:40:51.761Z,39.65
2022-08-05T16:43:25.691Z,39.62
2022-08-05T16:46:07.794Z,39.69
2022-08-05T16:48:41.501Z,39.68
2022-08-05T16:51:10.914Z,39.65
2022-08-05T16:54:05.991Z,39.51
2022-08-05T16:56:31.029Z,39.43
2022-08-05T16:59:00.972Z,39.39
2022-08-05T17:01:54.240Z,39.33
2022-08-05T17:04:27.369Z,39.32
2022-08-05T17:07:03.199Z,39.29
2022-08-05T17:09:57.367Z,39.35
2022-08-05T17:12:50.419Z,39.72
2022-08-05T17:15:15.490Z,40.17
2022-08-05T17:17:55.042Z,40.57
2022-08-05T17:20:23.594Z,40.93
2022-08-05T17:22:55.229Z,41.28
2022-08-05T17:25:39.377Z,41.54
2022-08-05T17:28:09.262Z,41.64
2022-08-05T17:30:50.232Z,41.59
2022-08-05T17:33:19.973Z,41.47
2022-08-05T17:36:08.918Z,41.31
2022-08-05T17:38:35.979Z,40.94
2022-08-05T17:41:03.796Z,40.46
2022-08-05T17:43:50.571Z,39.88
2022-08-05T17:46:20.438Z,39.07
2022-08-05T17:48:48.942Z,38.07
2022-08-05T17:51:21.434Z,36.82
2022-08-05T17:53:54.534Z,35.65
2022-08-05T17:56:23.012Z,34.61
2022-08-05T17:58:56.322Z,33.67
2022-08-05T18:01:24.247Z,32.77
2022-08-05T18:04:04.453Z,31.98
2022-08-05T18:06:33.589Z,31.21
2022-08-05T18:09:03.390Z,30.51
2022-08-05T18:11:33.151Z,29.85
2022-08-05T18:14:03.637Z,29.23
2022-08-05T18:16:32.865Z,28.66
2022-08-05T18:19:00.935Z,28.17
2022-08-05T18:22:09.137Z,27.74
2022-08-05T18:24:16.601Z,27.26
2022-08-05T18:26:44.835Z,26.88
2022-08-05T18:29:16.785Z,26.53
2022-08-05T18:31:45.007Z,26.21
2022-08-05T18:34:12.928Z,25.93
2022-08-05T18:36:43.654Z,25.67
2022-08-05T18:39:22.601Z,25.42
2022-08-05T18:42:04.756Z,25.17
2022-08-05T18:44:35.562Z,24.96
2022-08-05T18:47:17.355Z,24.80
2022-08-05T18:50:03.912Z,24.67
2022-08-05T18:52:51.451Z,24.52
2022-08-05T18:55:21.474Z,24.44
2022-08-05T18:57:54.159Z,24.33
2022-08-05T19:00:31.475Z,24.24
2022-08-05T19:03:03.697Z,24.15
2022-08-05T19:06:12.711Z,24.07
2022-08-05T19:08:22.455Z,23.98
2022-08-05T19:10:59.766Z,23.89
2022-08-05T19:14:37.919Z,23.78
2022-08-05T19:18:10.297Z,23.65
2022-08-05T19:21:01.652Z,23.51
2022-08-05T19:24:07.090Z,23.44
2022-08-05T19:26:22.068Z,23.48
2022-08-05T19:28:49.890Z,23.54
2022-08-05T19:31:19.519Z,23.57
2022-08-05T19:33:56.017Z,23.54
2022-08-05T19:36:25.484Z,23.49
2022-08-05T19:38:54.414Z,23.43
2022-08-05T19:41:34.774Z,23.38
2022-08-05T19:44:13.693Z,23.32
2022-08-05T19:46:43.735Z,23.28
2022-08-05T19:49:12.580Z,23.25
2022-08-05T19:52:04.459Z,23.22
2022-08-05T19:54:34.932Z,23.16
2022-08-05T19:57:06.889Z,23.13
2022-08-05T19:59:55.836Z,23.12
2022-08-05T20:02:27.992Z,23.10
2022-08-05T20:04:58.739Z,23.09
2022-08-05T20:07:45.747Z,23.09
2022-08-05T20:10:16.705Z,23.07
2022-08-05T20:12:45.934Z,23.04
2022-08-05T20:15:48.735Z,23.01
2022-08-05T20:18:10.819Z,22.97
2022-08-05T20:20:55.797Z,22.96
2022-08-05T20:23:40.240Z,22.98
2022-08-05T20:26:15.901Z,23.00
2022-08-05T20:28:45.665Z,23.01
2022-08-05T20:31:13.481Z,23.04
2022-08-05T20:33:45.364Z,23.08
2022-08-05T20:36:16.286Z,23.11
2022-08-05T20:38:54.663Z,23.13
2022-08-05T20:41:44.334Z,23.15
2022-08-05T20:44:18.789Z,23.15
2022-08-05T20:46:57.994Z,23.15
2022-08-05T20:49:26.277Z,23.15
2022-08-05T20:51:54.944Z,23.15
2022-08-05T20:54:24.717Z,23.15
2022-08-05T20:56:53.116Z,23.16
2022-08-05T20:59:27.017Z,23.16
2022-08-05T21:02:09.154Z,23.17
2022-08-05T21:04:38.499Z,23.16
2022-08-05T21:07:06.359Z,23.15
2022-08-05T21:09:37.215Z,23.14
2022-08-05T21:12:19.976Z,23.13
2022-08-05T21:14:47.828Z,23.12
2022-08-05T21:17:16.069Z,23.11
2022-08-05T21:19:48.045Z,23.10
2022-08-05T21:22:23.248Z,23.09
2022-08-05T21:24:52.738Z,23.08
2022-08-05T21:27:24.984Z,23.07
2022-08-05T21:29:56.244Z,23.04
2022-08-05T21:32:27.189Z,23.03
2022-08-05T21:35:17.728Z,23.00
2022-08-05T21:37:53.042Z,22.97
2022-08-05T21:40:24.765Z,22.93
2022-08-05T21:42:53.506Z,22.89
2022-08-05T21:45:25.166Z,22.85
2022-08-05T21:48:10.104Z,22.79
2022-08-05T21:50:42.479Z,22.75
2022-08-05T21:53:27.220Z,22.68
2022-08-05T21:56:06.039Z,22.63
2022-08-05T21:58:42.348Z,22.57
2022-08-05T22:01:23.901Z,22.52
2022-08-05T22:03:53.620Z,22.49
2022-08-05T22:06:39.480Z,22.47
2022-08-05T22:09:13.722Z,22.44
2022-08-05T22:11:46.698Z,22.39
2022-08-05T22:14:37.203Z,22.33
2022-08-05T22:17:06.795Z,22.22
2022-08-05T22:19:57.460Z,22.15
2022-08-05T22:22:28.049Z,22.09
2022-08-05T22:25:21.313Z,22.03
2022-08-05T22:28:08.390Z,21.96
2022-08-05T22:30:44.335Z,21.92
2022-08-05T22:33:56.996Z,21.88
2022-08-05T22:36:14.653Z,21.83
2022-08-05T22:38:48.054Z,21.79
2022-08-05T22:42:04.299Z,21.76
2022-08-05T22:44:06.852Z,21.72
2022-08-05T22:46:40.196Z,21.68
2022-08-05T22:49:23.590Z,21.65
2022-08-05T22:52:05.483Z,21.62
2022-08-05T22:54:36.337Z,21.61
2022-08-05T22:57:07.455Z,21.60
2022-08-05T22:59:46.114Z,21.60
2022-08-05T23:02:18.635Z,21.61
2022-08-05T23:05:01.910Z,21.60
2022-08-05T23:07:44.070Z,21.61
2022-08-05T23:10:14.497Z,21.61
2022-08-05T23:12:43.044Z,21.61
2022-08-05T23:15:11.986Z,21.61
2022-08-05T23:18:02.396Z,21.59
2022-08-05T23:20:27.589Z,21.58
2022-08-05T23:22:58.701Z,21.58
2022-08-05T23:25:54.758Z,21.58
2022-08-05T23:28:15.669Z,21.58
2022-08-05T23:30:53.361Z,21.59
2022-08-05T23:33:26.487Z,21.59
2022-08-05T23:36:12.337Z,21.57
2022-08-05T23:38:42.847Z,21.56
2022-08-05T23:41:11.417Z,21.56
2022-08-05T23:44:03.171Z,21.54
2022-08-05T23:46:27.002Z,21.50
2022-08-05T23:49:00.461Z,21.43
2022-08-05T23:51:53.764Z,21.33
2022-08-05T23:54:25.764Z,21.17
2022-08-05T23:56:55.340Z,21.10
2022-08-05T23:59:27.828Z,22.12
